Nearby METAR Reports

 

EGNS - Isle Of Man/Rona, United Kingdom
Distance from station: SSW 16mi, 26km
Updated: 22/01/2022 00:50
Overcast
Overcast
 Wind from W
Wind: W 7 mph , 11 km/h
Temperature: 7°C
Wind Chill: 5°C
Dew Point: 3°C
Humidity: 76%
Barometer: 1038 hPa
Clouds: Overcast
Visibility: 6 miles , 10 km
Cloud details: Overcast 640 m
2022/01/22 00:50 EGNS 220050Z 28006KT 250V340 9999 OVC021 07/03 Q1038
EGAC - Belfast Harbour, United Kingdom
Distance from station: WNW 57mi, 92km
Updated: 22/01/2022 01:20
Overcast
Overcast
 Wind from SW
Wind: SW 8 mph , 13 km/h
Temperature: 7°C
Wind Chill: 5°C
Dew Point: 4°C
Humidity: 81%
Barometer: 1037 hPa
Clouds: Overcast
Visibility: 6 miles , 10 km
Cloud details: Overcast 671 m
2022/01/22 01:20 EGAC 220120Z AUTO 23007KT 210V270 9999 OVC022/// 07/04 Q1037
 
EGAA - Belfast/Aldergro, United Kingdom
Distance from station: WNW 71mi, 114km
Updated: 22/01/2022 01:20
Overcast
Overcast
 Wind from SW
Wind: SW 9 mph , 15 km/h
Temperature: 6°C
Wind Chill: 3°C
Dew Point: 4°C
Humidity: 87%
Barometer: 1037 hPa
Clouds: Overcast
Visibility: 6 miles , 10 km
Cloud details: Overcast 579 m
2022/01/22 01:20 EGAA 220120Z AUTO 23008KT 9999 OVC019 06/04 Q1037
EGNH - Blackpool Airpor, United Kingdom
Distance from station: ESE 73mi, 117km
Updated: 21/01/2022 19:50
NOT Current
Mostly cloudy
Mostly cloudy
 Wind from NW
Wind: NW 12 mph , 19 km/h
Temperature: 7°C
Wind Chill: 4°C
Dew Point: 4°C
Humidity: 81%
Barometer: 1038 hPa
Clouds: Mostly cloudy
Visibility: 6 miles , 10 km
Cloud details: Mostly cloudy 671 m
2022/01/21 19:50 EGNH 211950Z 31010KT 9999 BKN022 07/04 Q1038
 
EGOV - Valley Raf, United Kingdom
Distance from station: S 73mi, 118km
Updated: 22/01/2022 00:50
Overcast
Overcast
 Wind from WNW
Wind: WNW 7 mph , 11 km/h
Temperature: 7°C
Wind Chill: 5°C
Dew Point: 3°C
Humidity: 76%
Barometer: 1039 hPa
Clouds: Overcast
Visibility: 6 miles , 10 km
Cloud details: Overcast 640 m
2022/01/22 00:50 EGOV 220050Z AUTO 30006KT 9999 OVC021/// 07/03 Q1039
EGNO - Wharton, United Kingdom
Distance from station: ESE 78mi, 125km
Updated: 21/01/2022 16:50
NOT Current
Mostly cloudy
Mostly cloudy
 Wind from WNW
Wind: WNW 12 mph , 19 km/h
Temperature: 7°C
Wind Chill: 4°C
Dew Point: 3°C
Humidity: 76%
Barometer: 1037 hPa
Clouds: Mostly cloudy
Visibility: 6 miles , 10 km
Cloud details: Mostly cloudy 732 m
2022/01/21 16:50 EGNO 211650Z 29010KT 9999 BKN024 07/03 Q1037
 
EGOW - Woodvale Raf, United Kingdom
Distance from station: SE 79mi, 127km
Updated: 21/01/2022 14:20
NOT Current
Mostly cloudy
Mostly cloudy
 Wind from WNW
Wind: WNW 12 mph , 19 km/h
Temperature: 7°C
Wind Chill: 4°C
Dew Point: 3°C
Humidity: 76%
Barometer: 1038 hPa
Clouds: Mostly cloudy
Visibility: 6 miles , 10 km
Cloud details: Mostly cloudy 762 m
2022/01/21 14:20 EGOW 211420Z 30010KT 9999 BKN025 07/03 Q1038 RMK BLU
EGPK - Prestwick(Civ/Na, United Kingdom
Distance from station: N 82mi, 132km
Updated: 22/01/2022 01:20
Overcast
Overcast
 Wind from WSW
Wind: WSW 13 mph , 20 km/h
Temperature: 8°C
Wind Chill: 4°C
Dew Point: 6°C
Humidity: 87%
Barometer: 1035 hPa
Clouds: Overcast
Visibility: 6 miles , 10 km
Cloud details: Overcast 792 m
2022/01/22 01:20 EGPK 220120Z 24011KT 9999 OVC026 08/06 Q1035
 
EGCK - Caernarfon, United Kingdom
Distance from station: S 84mi, 136km
Updated: 22/01/2022 01:20
Overcast
Overcast
 Wind from NW
Wind: NW 7 mph , 11 km/h
Temperature: 7°C
Wind Chill: 5°C
Dew Point: 3°C
Humidity: 76%
Barometer: 1039 hPa
Clouds: Overcast
Visibility: 6 miles , 10 km
Cloud details: Overcast 701 m
2022/01/22 01:20 EGCK 220120Z AUTO 31006KT 9999 OVC023/// 07/03 Q1039
EGEC - Campbeltown, United Kingdom
Distance from station: NNW 90mi, 144km
Updated: 21/01/2022 17:20
NOT Current
Mostly cloudy
Mostly cloudy
 Wind from W
Wind: W 16 mph , 26 km/h
Temperature: 7°C
Wind Chill: 3°C
Dew Point: 6°C
Humidity: 93%
Barometer: 1036 hPa
Clouds: Mostly cloudy
Visibility: 6 miles , 10 km
Cloud details: Mostly cloudy 305 m
2022/01/21 17:20 EGEC 211720Z 27014KT 9999 BKN010 07/06 Q1036
 
EIDW - Dublin Airport, Ireland
Distance from station: SW 93mi, 150km
Updated: 22/01/2022 01:30
Mostly cloudy
Mostly cloudy
 Wind from WSW
Wind: WSW 6 mph , 9 km/h
Temperature: 5°C
Wind Chill: 3°C
Dew Point: 3°C
Humidity: 87%
Barometer: 1038 hPa
Clouds: Mostly cloudy
Visibility: 6 miles , 10 km
Cloud details: Few Clouds 427 m
Mostly cloudy 671 m
Mostly cloudy 732 m
2022/01/22 01:30 EIDW 220130Z 24005KT 200V280 9999 FEW014 BKN022 BKN024 05/03 Q1038 NOSIG
EGOM - Spadeadam, United Kingdom
Distance from station: NE 95mi, 152km
Updated: 22/01/2022 00:50
Mist, Mostly cloudy
Mist, Mostly cloudy
 Wind from W
Wind: W 16 mph , 26 km/h
Temperature: 4°C
Wind Chill: -1°C
Dew Point: 4°C
Humidity: 100%
Barometer: 1034 hPa
Summary: Mist
Clouds: Mostly cloudy
Visibility: 2 miles , 4 km
Cloud details: Partly cloudy 61 m
Mostly cloudy 305 m
2022/01/22 00:50 EGOM 220050Z AUTO 26014KT 3700 BR SCT002/// BKN010/// 04/04 Q1034
 
EGGP - Liverpool Airpor, United Kingdom
Distance from station: SE 98mi, 157km
Updated: 22/01/2022 01:20
Overcast
Overcast
 Wind from WNW
Wind: WNW 13 mph , 20 km/h
Temperature: 7°C
Wind Chill: 4°C
Dew Point: 3°C
Humidity: 76%
Barometer: 1037 hPa
Clouds: Overcast
Visibility: 6 miles , 10 km
Cloud details: Overcast 518 m
2022/01/22 01:20 EGGP 220120Z AUTO 29011KT 9999 OVC017/// 07/03 Q1037
Flag Counter
Free Website Hit Counter
Free website hit counter